Airfield :
LOGIN :

Register | Disclaimer

   EN    FR    IT 

 










Legend :    VFR   Marginal VFR   IFR   Intensive IFR   Very Intensive IFR
Visi :
Ceiling :
>= 8 km
>= 3000ft
5 to 8 km
1000 to 3000 ft
1500m to 5 km
500 to 1000 ft
800 to 1500m
200 to 500 ft
< 800m
< 200 ft
Symbols :   Thunderstorms  Fog  Heavy snow  Heavy precipitations  Wind > 20 kt
SIGMETs :     Misc.  Thunderstorms  Icing  Turbulence  Mountain Waves  Volcanic Ashes






- Airport Elevation : 1649 ft
- IATA code : HHN


EDFH - Frankfurt-Hahn Rhineland-Palatinate

CURRENT METAR :
  • 270820Z 21012KT 9999 SCT016 01/M01 Q1002

EXPIRED METARs :
  • 270750Z 22012KT 9999 BKN012 01/M01 Q1003
  • 270720Z 22010KT 9999 BKN010 00/M01 Q1003
  • 270650Z 22010KT 9999 BKN008 00/M01 Q1004
  • 270620Z 22008KT 9000 BKN009 00/M01 Q1004
  • 270550Z 23008KT 210V270 9999 BKN007 00/M01 Q1004

TAF TAF EDFH
Valid from the 27 at 06:00 until the 28 at 06:00 UTC


270500Z 2706/2806 25010KT 9999 SCT006 BKN015
TEMPO 2706/2709 18012KT BKN006
BECMG 2709/2712 15012KT 2000 -SN OVC005
TEMPO 2712/2720 29015G25KT 0500 SN OVC001
BECMG 2715/2717 30015G25KT
BECMG 2802/2804 6000 SCT005 BKN012
BECMG 2804/2806 27012KT



MET'MAP, your aeronautical weather chart ! - Copyright ORBIFLY December 2007 - Disclaimer

ORBIFLY MET'MAP TEAM :

Programming & Development : Alexandra Zaïnal
Concept & original design : Baudouin d'Aumeries
Assistance for programming : Marc-Olivier Méhu
Technical & hardware support : Manuel Goepfert

Contact : metmap@orbifly.com




SOURCES & CREDITS :

   NOAA